createdAt,value
2022-09-14T00:01:37.425Z,58.99
2022-09-14T00:04:10.916Z,59.14
2022-09-14T00:06:39.442Z,58.96
2022-09-14T00:09:08.722Z,58.87
2022-09-14T00:11:38.177Z,58.94
2022-09-14T00:14:07.568Z,59.15
2022-09-14T00:16:39.507Z,58.86
2022-09-14T00:19:14.620Z,58.85
2022-09-14T00:21:42.921Z,59.14
2022-09-14T00:24:12.335Z,58.81
2022-09-14T00:26:40.566Z,58.73
2022-09-14T00:29:08.644Z,59.13
2022-09-14T00:31:39.294Z,59.08
2022-09-14T00:34:12.697Z,58.66
2022-09-14T00:36:42.651Z,59.14
2022-09-14T00:39:10.851Z,58.73
2022-09-14T00:41:41.176Z,59.10
2022-09-14T00:44:47.711Z,58.99
2022-09-14T00:47:18.263Z,58.89
2022-09-14T00:49:47.795Z,59.07
2022-09-14T00:52:19.202Z,58.73
2022-09-14T00:54:50.642Z,59.05
2022-09-14T00:57:20.381Z,58.98
2022-09-14T00:59:51.016Z,58.99
2022-09-14T01:02:21.549Z,59.02
2022-09-14T01:04:52.011Z,58.80
2022-09-14T01:07:32.087Z,58.56
2022-09-14T01:10:09.332Z,58.65
2022-09-14T01:12:46.807Z,58.51
2022-09-14T01:15:20.386Z,58.71
2022-09-14T01:17:56.555Z,58.96
2022-09-14T01:20:31.627Z,58.57
2022-09-14T01:23:10.234Z,58.86
2022-09-14T01:26:08.616Z,58.55
2022-09-14T01:28:46.765Z,58.64
2022-09-14T01:31:24.403Z,58.51
2022-09-14T01:33:56.768Z,58.95
2022-09-14T01:36:27.701Z,58.58
2022-09-14T01:38:57.029Z,58.81
2022-09-14T01:41:31.483Z,58.89
2022-09-14T01:44:07.503Z,58.71
2022-09-14T01:46:40.200Z,58.88
2022-09-14T01:49:15.307Z,58.53
2022-09-14T01:51:47.324Z,58.70
2022-09-14T01:54:22.317Z,58.67
2022-09-14T01:56:55.013Z,58.60
2022-09-14T01:59:27.431Z,58.74
2022-09-14T02:02:00.640Z,58.95
2022-09-14T02:04:34.799Z,58.74
2022-09-14T02:07:03.733Z,58.36
2022-09-14T02:09:32.128Z,58.76
2022-09-14T02:12:00.969Z,58.45
2022-09-14T02:14:31.168Z,58.51
2022-09-14T02:16:59.728Z,58.55
2022-09-14T02:19:32.044Z,58.71
2022-09-14T02:22:00.920Z,58.90
2022-09-14T02:24:29.952Z,58.70
2022-09-14T02:26:59.119Z,58.54
2022-09-14T02:29:27.307Z,58.87
2022-09-14T02:32:08.309Z,58.40
2022-09-14T02:34:47.807Z,58.43
2022-09-14T02:37:20.892Z,58.40
2022-09-14T02:39:58.064Z,58.60
2022-09-14T02:42:34.859Z,58.41
2022-09-14T02:45:11.565Z,58.67
2022-09-14T02:47:51.205Z,58.43
2022-09-14T02:50:24.917Z,58.48
2022-09-14T02:53:00.325Z,58.50
2022-09-14T02:55:33.753Z,58.41
2022-09-14T02:58:07.310Z,58.54
2022-09-14T03:00:37.849Z,58.58
2022-09-14T03:03:09.076Z,58.49
2022-09-14T03:05:38.339Z,58.59
2022-09-14T03:08:07.363Z,58.54
2022-09-14T03:10:35.773Z,58.45
2022-09-14T03:13:04.289Z,58.47
2022-09-14T03:15:32.485Z,58.80
2022-09-14T03:18:00.762Z,58.59
2022-09-14T03:20:33.075Z,58.63
2022-09-14T03:23:02.399Z,58.78
2022-09-14T03:25:30.647Z,58.43
2022-09-14T03:28:00.673Z,58.71
2022-09-14T03:30:29.271Z,58.51
2022-09-14T03:32:59.015Z,58.43
2022-09-14T03:35:27.256Z,58.46
2022-09-14T03:37:56.860Z,58.42
2022-09-14T03:40:25.363Z,58.40
2022-09-14T03:42:53.991Z,58.76
2022-09-14T03:45:22.863Z,58.41
2022-09-14T03:47:51.917Z,58.38
2022-09-14T03:50:20.664Z,58.44
2022-09-14T03:52:48.817Z,58.60
2022-09-14T03:55:19.309Z,58.44
2022-09-14T03:57:47.426Z,58.51
2022-09-14T04:00:15.929Z,58.58
2022-09-14T04:02:45.577Z,58.36
2022-09-14T04:05:13.896Z,58.35
2022-09-14T04:07:42.076Z,58.75
2022-09-14T04:10:11.039Z,58.67
2022-09-14T04:12:40.917Z,58.61
2022-09-14T04:15:09.958Z,58.69
2022-09-14T04:17:38.090Z,58.47
2022-09-14T04:20:06.871Z,58.53
2022-09-14T04:22:35.661Z,58.39
2022-09-14T04:25:03.821Z,58.57
2022-09-14T04:27:32.250Z,58.66
2022-09-14T04:30:02.028Z,58.50
2022-09-14T04:32:34.212Z,58.72
2022-09-14T04:35:02.802Z,58.34
2022-09-14T04:37:32.623Z,58.33
2022-09-14T04:40:00.840Z,58.33
2022-09-14T04:42:30.975Z,58.30
2022-09-14T04:44:59.078Z,58.73
2022-09-14T04:47:29.909Z,58.29
2022-09-14T04:49:58.043Z,58.65
2022-09-14T04:52:26.426Z,58.40
2022-09-14T04:54:54.504Z,58.21
2022-09-14T04:57:22.609Z,58.33
2022-09-14T04:59:50.694Z,58.33
2022-09-14T05:02:18.850Z,58.68
2022-09-14T05:04:48.447Z,58.24
2022-09-14T05:07:16.541Z,58.75
2022-09-14T05:09:44.635Z,58.37
2022-09-14T05:12:12.710Z,58.49
2022-09-14T05:14:40.753Z,58.62
2022-09-14T05:17:09.115Z,58.49
2022-09-14T05:19:37.204Z,58.65
2022-09-14T05:22:06.754Z,58.47
2022-09-14T05:24:34.863Z,58.50
2022-09-14T05:27:03.085Z,58.29
2022-09-14T05:29:32.076Z,58.22
2022-09-14T05:32:00.269Z,58.29
2022-09-14T05:34:28.351Z,58.32
2022-09-14T05:36:56.464Z,58.37
2022-09-14T05:39:26.173Z,58.21
2022-09-14T05:41:54.469Z,58.47
2022-09-14T05:44:22.677Z,58.24
2022-09-14T05:46:50.799Z,58.46
2022-09-14T05:49:19.083Z,58.66
2022-09-14T05:51:47.142Z,58.32
2022-09-14T05:54:16.181Z,58.31
2022-09-14T05:56:45.685Z,58.22
2022-09-14T05:59:13.936Z,58.44
2022-09-14T06:01:42.279Z,58.63
2022-09-14T06:04:12.216Z,58.25
2022-09-14T06:06:40.358Z,58.17
2022-09-14T06:09:08.467Z,58.38
2022-09-14T06:11:37.551Z,58.21
2022-09-14T06:14:07.645Z,58.09
2022-09-14T06:16:36.229Z,58.05
2022-09-14T06:19:04.878Z,58.16
2022-09-14T06:21:35.659Z,58.29
2022-09-14T06:24:04.620Z,58.32
2022-09-14T06:26:32.984Z,58.18
2022-09-14T06:29:01.122Z,58.09
2022-09-14T06:31:30.820Z,58.50
2022-09-14T06:33:59.085Z,58.03
2022-09-14T06:36:29.453Z,58.46
2022-09-14T06:38:57.993Z,58.14
2022-09-14T06:41:29.293Z,58.02
2022-09-14T06:43:58.569Z,58.23
2022-09-14T06:46:29.349Z,58.39
2022-09-14T06:49:01.738Z,58.34
2022-09-14T06:51:32.618Z,58.39
2022-09-14T06:54:01.649Z,58.16
2022-09-14T06:56:32.742Z,58.00
2022-09-14T06:59:00.832Z,57.96
2022-09-14T07:01:30.037Z,58.04
2022-09-14T07:04:01.519Z,58.01
2022-09-14T07:06:32.301Z,58.25
2022-09-14T07:09:04.095Z,58.48
2022-09-14T07:11:33.018Z,58.35
2022-09-14T07:14:02.001Z,58.09
2022-09-14T07:16:31.707Z,57.96
2022-09-14T07:19:03.178Z,58.38
2022-09-14T07:21:32.272Z,58.18
2022-09-14T07:24:00.646Z,58.00
2022-09-14T07:26:30.826Z,58.01
2022-09-14T07:29:00.485Z,58.33
2022-09-14T07:31:31.091Z,58.07
2022-09-14T07:34:03.432Z,58.19
2022-09-14T07:36:35.075Z,58.32
2022-09-14T07:39:04.948Z,58.16
2022-09-14T07:41:34.312Z,58.42
2022-09-14T07:44:03.733Z,58.01
2022-09-14T07:46:38.388Z,57.96
2022-09-14T07:49:09.559Z,58.25
2022-09-14T07:51:38.374Z,58.10
2022-09-14T07:54:07.712Z,58.24
2022-09-14T07:56:36.127Z,58.03
2022-09-14T08:01:53.945Z,57.89
2022-09-14T08:04:23.676Z,58.06
2022-09-14T08:06:51.751Z,57.94
2022-09-14T08:09:19.841Z,58.29
2022-09-14T08:11:47.916Z,58.14
2022-09-14T08:14:16.003Z,57.78
2022-09-14T08:16:44.155Z,58.12
2022-09-14T08:19:15.652Z,58.04
2022-09-14T08:21:47.707Z,57.83
2022-09-14T08:24:18.217Z,57.88
2022-09-14T08:26:46.638Z,57.79
2022-09-14T08:29:15.641Z,57.76
2022-09-14T08:31:45.827Z,58.13
2022-09-14T08:34:15.298Z,57.94
2022-09-14T08:36:46.728Z,58.14
2022-09-14T08:39:16.563Z,57.90
2022-09-14T08:41:52.213Z,57.88
2022-09-14T08:44:25.066Z,58.10
2022-09-14T08:46:57.078Z,57.74
2022-09-14T08:49:44.150Z,58.00
2022-09-14T08:52:22.919Z,58.17
2022-09-14T08:54:54.876Z,58.10
2022-09-14T08:57:30.084Z,58.13
2022-09-14T09:00:07.104Z,58.08
2022-09-14T09:03:02.945Z,58.04
2022-09-14T09:05:39.034Z,58.17
2022-09-14T09:08:18.553Z,58.06
2022-09-14T09:10:48.000Z,58.28
2022-09-14T09:13:20.877Z,57.96
2022-09-14T09:15:51.374Z,58.03
2022-09-14T09:18:24.836Z,57.67
2022-09-14T09:20:55.859Z,58.14
2022-09-14T09:23:29.227Z,58.04
2022-09-14T09:26:01.197Z,57.84
2022-09-14T09:28:30.791Z,58.06
2022-09-14T09:31:02.369Z,58.00
2022-09-14T09:33:30.503Z,58.02
2022-09-14T09:35:59.187Z,58.25
2022-09-14T09:38:30.233Z,58.03
2022-09-14T09:41:03.097Z,58.02
2022-09-14T09:43:49.018Z,58.12
2022-09-14T09:46:18.867Z,57.90
2022-09-14T09:48:48.402Z,57.92
2022-09-14T09:51:23.519Z,57.94
2022-09-14T09:53:56.928Z,57.74
2022-09-14T09:56:27.084Z,57.73
2022-09-14T09:58:55.483Z,57.78
2022-09-14T10:01:29.101Z,58.09
2022-09-14T10:04:16.900Z,57.72
2022-09-14T10:06:47.077Z,58.20
2022-09-14T10:09:19.040Z,57.98
2022-09-14T10:11:48.937Z,58.09
2022-09-14T10:14:27.155Z,58.14
2022-09-14T10:16:55.473Z,57.70
2022-09-14T10:19:26.312Z,57.87
2022-09-14T10:22:07.272Z,57.72
2022-09-14T10:24:38.663Z,58.10
2022-09-14T10:27:37.741Z,57.79
2022-09-14T10:30:07.966Z,58.12
2022-09-14T10:32:38.000Z,58.15
2022-09-14T10:35:13.577Z,57.83
2022-09-14T10:37:51.252Z,57.82
2022-09-14T10:40:27.771Z,57.89
2022-09-14T10:43:04.960Z,58.24
2022-09-14T10:45:37.123Z,58.17
2022-09-14T10:48:38.566Z,58.24
2022-09-14T10:51:24.884Z,57.90
2022-09-14T10:54:00.311Z,58.17
2022-09-14T10:56:38.529Z,58.01
2022-09-14T10:59:21.485Z,57.78
2022-09-14T11:02:13.582Z,58.11
2022-09-14T11:05:06.521Z,58.13
2022-09-14T11:07:40.668Z,57.86
2022-09-14T11:10:18.588Z,58.11
2022-09-14T11:13:08.007Z,58.07
2022-09-14T11:15:43.781Z,57.66
2022-09-14T11:18:22.618Z,58.11
2022-09-14T11:21:04.421Z,57.78
2022-09-14T11:23:43.272Z,58.04
2022-09-14T11:26:15.562Z,57.71
2022-09-14T11:28:49.525Z,57.88
2022-09-14T11:31:22.046Z,57.76
2022-09-14T11:33:55.369Z,57.83
2022-09-14T11:36:26.858Z,57.82
2022-09-14T11:39:06.023Z,58.00
2022-09-14T11:41:40.513Z,58.21
2022-09-14T11:44:15.816Z,57.99
2022-09-14T11:46:49.900Z,57.98
2022-09-14T11:49:23.893Z,58.14
2022-09-14T11:51:57.023Z,57.65
2022-09-14T11:54:25.446Z,57.76
2022-09-14T11:56:59.187Z,57.93
2022-09-14T11:59:48.441Z,57.81
2022-09-14T12:02:52.786Z,57.79
2022-09-14T12:05:45.422Z,57.84
2022-09-14T12:08:41.394Z,57.82
2022-09-14T12:11:34.875Z,57.51
2022-09-14T12:14:29.599Z,57.69
2022-09-14T12:17:22.855Z,57.86
2022-09-14T12:20:00.617Z,57.62
2022-09-14T12:22:34.573Z,57.90
2022-09-14T12:25:06.280Z,57.85
2022-09-14T12:27:38.632Z,57.99
2022-09-14T12:30:58.004Z,57.64
2022-09-14T12:34:27.138Z,57.60
2022-09-14T12:37:26.283Z,57.84
2022-09-14T12:40:36.870Z,57.76
2022-09-14T12:43:48.552Z,57.54
2022-09-14T12:46:38.708Z,57.65
2022-09-14T12:49:39.027Z,57.64
2022-09-14T12:52:22.464Z,57.50
2022-09-14T12:55:05.447Z,57.54
2022-09-14T12:57:43.504Z,57.91
2022-09-14T13:00:15.495Z,57.53
2022-09-14T13:03:06.651Z,57.94
2022-09-14T13:05:36.221Z,58.04
2022-09-14T13:08:11.239Z,57.83
2022-09-14T13:10:45.834Z,57.76
2022-09-14T13:13:18.634Z,58.13
2022-09-14T13:15:53.867Z,57.68
2022-09-14T13:18:39.580Z,57.69
2022-09-14T13:21:22.163Z,57.81
2022-09-14T13:23:50.911Z,57.95
2022-09-14T13:26:22.061Z,57.75
2022-09-14T13:28:52.354Z,58.06
2022-09-14T13:31:28.975Z,57.82
2022-09-14T13:33:57.664Z,58.09
2022-09-14T13:36:29.774Z,57.89
2022-09-14T13:39:01.706Z,57.62
2022-09-14T13:41:31.196Z,57.90
2022-09-14T13:44:01.070Z,57.86
2022-09-14T13:46:29.882Z,57.73
2022-09-14T13:48:58.298Z,57.61
2022-09-14T13:51:29.915Z,57.83
2022-09-14T13:53:59.122Z,57.59
2022-09-14T13:56:31.235Z,57.69
2022-09-14T13:59:22.952Z,57.62
2022-09-14T14:01:55.494Z,57.96
2022-09-14T14:04:28.631Z,57.80
2022-09-14T14:07:16.791Z,57.31
2022-09-14T14:09:50.861Z,57.64
2022-09-14T14:12:27.507Z,57.79
2022-09-14T14:15:00.343Z,57.67
2022-09-14T14:17:37.503Z,57.54
2022-09-14T14:20:34.252Z,57.56
2022-09-14T14:23:21.252Z,57.40
2022-09-14T14:25:54.206Z,57.72
2022-09-14T14:28:26.142Z,57.83
2022-09-14T14:30:55.274Z,57.47
2022-09-14T14:33:23.897Z,57.48
2022-09-14T14:35:53.937Z,57.65
2022-09-14T14:38:25.083Z,57.69
2022-09-14T14:40:58.275Z,57.61
2022-09-14T14:43:27.701Z,57.43
2022-09-14T14:45:58.526Z,57.69
2022-09-14T14:48:27.653Z,57.33
2022-09-14T14:50:56.374Z,57.31
2022-09-14T14:53:27.424Z,57.43
2022-09-14T14:55:55.510Z,57.40
2022-09-14T14:58:24.812Z,57.36
2022-09-14T15:00:53.068Z,57.73
2022-09-14T15:03:21.271Z,57.78
2022-09-14T15:05:50.454Z,57.39
2022-09-14T15:08:20.326Z,57.55
2022-09-14T15:10:50.322Z,57.67
2022-09-14T15:13:18.442Z,57.61
2022-09-14T15:15:46.641Z,57.76
2022-09-14T15:18:14.708Z,57.56
2022-09-14T15:20:42.805Z,57.46
2022-09-14T15:23:14.197Z,57.28
2022-09-14T15:25:42.306Z,57.28
2022-09-14T15:28:11.780Z,57.48
2022-09-14T15:30:39.949Z,57.58
2022-09-14T15:33:08.135Z,57.49
2022-09-14T15:35:36.221Z,57.30
2022-09-14T15:38:04.374Z,57.51
2022-09-14T15:40:33.097Z,57.57
2022-09-14T15:43:01.300Z,57.13
2022-09-14T15:45:30.856Z,57.29
2022-09-14T15:47:58.960Z,57.25
2022-09-14T15:50:28.349Z,57.53
2022-09-14T15:53:01.865Z,57.46
2022-09-14T15:55:30.691Z,57.46
2022-09-14T15:57:58.786Z,57.38
2022-09-14T16:00:26.872Z,57.35
2022-09-14T16:02:56.460Z,57.59
2022-09-14T16:05:24.534Z,57.22
2022-09-14T16:07:54.698Z,57.68
2022-09-14T16:10:22.875Z,57.19
2022-09-14T16:12:51.272Z,57.46
2022-09-14T16:15:19.475Z,57.58
2022-09-14T16:17:51.063Z,57.42
2022-09-14T16:20:21.605Z,57.44
2022-09-14T16:22:50.417Z,57.56
2022-09-14T16:25:18.535Z,57.58
2022-09-14T16:27:46.766Z,57.44
2022-09-14T16:30:14.923Z,57.19
2022-09-14T16:32:43.024Z,57.21
2022-09-14T16:35:11.329Z,57.24
2022-09-14T16:37:41.005Z,57.19
2022-09-14T16:40:10.315Z,57.51
2022-09-14T16:42:38.625Z,57.32
2022-09-14T16:45:08.322Z,57.30
2022-09-14T16:47:36.487Z,57.60
2022-09-14T16:50:05.472Z,57.29
2022-09-14T16:52:33.946Z,57.58
2022-09-14T16:55:03.432Z,57.69
2022-09-14T16:57:31.631Z,57.33
2022-09-14T16:59:59.795Z,57.20
2022-09-14T17:02:27.977Z,57.60
2022-09-14T17:04:56.111Z,57.53
2022-09-14T17:07:24.444Z,57.26
2022-09-14T17:09:52.584Z,57.66
2022-09-14T17:12:22.183Z,57.21
2022-09-14T17:14:50.264Z,57.34
2022-09-14T17:17:18.332Z,57.41
2022-09-14T17:19:46.865Z,57.33
2022-09-14T17:22:15.422Z,57.40
2022-09-14T17:24:43.601Z,57.32
2022-09-14T17:27:11.688Z,57.52
2022-09-14T17:29:41.145Z,57.25
2022-09-14T17:32:14.656Z,57.62
2022-09-14T17:34:43.224Z,57.36
2022-09-14T17:37:11.358Z,57.44
2022-09-14T17:39:39.471Z,57.63
2022-09-14T17:42:07.736Z,57.33
2022-09-14T17:44:36.827Z,57.40
2022-09-14T17:47:06.790Z,57.57
2022-09-14T17:49:35.256Z,57.25
2022-09-14T17:52:03.774Z,57.43
2022-09-14T17:54:31.931Z,57.49
2022-09-14T17:57:00.057Z,57.26
2022-09-14T17:59:28.199Z,57.39
2022-09-14T18:01:56.306Z,57.35
2022-09-14T18:04:25.784Z,57.15
2022-09-14T18:06:53.874Z,57.27
2022-09-14T18:09:24.197Z,57.04
2022-09-14T18:11:56.080Z,57.35
2022-09-14T18:14:24.425Z,57.55
2022-09-14T18:16:52.719Z,57.20
2022-09-14T18:19:20.873Z,57.30
2022-09-14T18:21:52.622Z,57.18
2022-09-14T18:24:21.570Z,57.41
2022-09-14T18:26:49.730Z,57.28
2022-09-14T18:29:21.240Z,57.54
2022-09-14T18:31:49.638Z,57.54
2022-09-14T18:34:18.363Z,57.08
2022-09-14T18:36:46.461Z,57.57
2022-09-14T18:39:16.188Z,57.61
2022-09-14T18:41:44.401Z,57.36
2022-09-14T18:44:12.518Z,57.58
2022-09-14T18:46:40.732Z,57.26
2022-09-14T18:49:08.877Z,57.36
2022-09-14T18:51:37.026Z,57.07
2022-09-14T18:54:06.873Z,57.19
2022-09-14T18:56:38.413Z,57.15
2022-09-14T18:59:08.793Z,57.52
2022-09-14T19:01:37.789Z,57.44
2022-09-14T19:04:07.999Z,57.24
2022-09-14T19:06:37.213Z,57.29
2022-09-14T19:09:06.300Z,57.47
2022-09-14T19:11:35.276Z,57.25
2022-09-14T19:14:10.124Z,57.08
2022-09-14T19:16:39.487Z,57.34
2022-09-14T19:19:08.970Z,57.04
2022-09-14T19:21:37.114Z,57.30
2022-09-14T19:24:07.724Z,56.91
2022-09-14T19:26:42.599Z,57.42
2022-09-14T19:29:15.487Z,56.93
2022-09-14T19:31:44.126Z,57.19
2022-09-14T19:34:12.783Z,57.32
2022-09-14T19:36:41.131Z,57.39
2022-09-14T19:39:09.212Z,57.31
2022-09-14T19:41:38.156Z,57.27
2022-09-14T19:44:07.786Z,57.34
2022-09-14T19:46:39.699Z,57.17
2022-09-14T19:49:08.642Z,57.20
2022-09-14T19:51:36.740Z,57.16
2022-09-14T19:54:05.067Z,57.43
2022-09-14T19:56:33.573Z,57.34
2022-09-14T19:59:03.085Z,57.40
2022-09-14T20:01:33.077Z,57.32
2022-09-14T20:04:03.536Z,57.08
2022-09-14T20:06:33.525Z,57.08
2022-09-14T20:09:04.058Z,57.26
2022-09-14T20:11:33.849Z,57.46
2022-09-14T20:14:03.785Z,57.11
2022-09-14T20:16:34.846Z,57.25
2022-09-14T20:19:10.133Z,57.01
2022-09-14T20:21:39.082Z,57.12
2022-09-14T20:24:16.186Z,57.35
2022-09-14T20:26:46.242Z,57.37
2022-09-14T20:29:15.299Z,57.36
2022-09-14T20:31:43.883Z,56.95
2022-09-14T20:34:15.760Z,57.24
2022-09-14T20:36:44.200Z,57.07
2022-09-14T20:39:12.503Z,56.94
2022-09-14T20:41:41.293Z,57.02
2022-09-14T20:44:09.912Z,57.01
2022-09-14T20:46:44.234Z,57.21
2022-09-14T20:49:15.768Z,57.36
2022-09-14T20:51:44.236Z,57.30
2022-09-14T20:54:15.183Z,56.88
2022-09-14T20:56:44.110Z,57.13
2022-09-14T20:59:14.232Z,56.90
2022-09-14T21:01:44.128Z,57.17
2022-09-14T21:04:15.792Z,56.94
2022-09-14T21:06:45.358Z,57.27
2022-09-14T21:09:14.776Z,56.98
2022-09-14T21:11:45.782Z,57.37
2022-09-14T21:14:14.523Z,57.20
2022-09-14T21:16:47.098Z,57.00
2022-09-14T21:19:19.518Z,57.21
2022-09-14T21:21:48.498Z,57.08
2022-09-14T21:24:18.283Z,56.81
2022-09-14T21:26:46.684Z,57.23
2022-09-14T21:29:23.879Z,56.96
2022-09-14T21:31:52.669Z,57.31
2022-09-14T21:34:22.373Z,56.88
2022-09-14T21:36:52.881Z,56.97
2022-09-14T21:39:23.211Z,57.21
2022-09-14T21:41:57.315Z,57.18
2022-09-14T21:44:30.001Z,56.97
2022-09-14T21:46:58.163Z,56.96
2022-09-14T21:49:27.704Z,57.19
2022-09-14T21:51:55.878Z,56.86
2022-09-14T21:54:24.304Z,57.08
2022-09-14T21:56:53.845Z,56.83
2022-09-14T21:59:23.320Z,56.92
2022-09-14T22:01:51.667Z,56.82
2022-09-14T22:04:23.555Z,57.08
2022-09-14T22:06:53.288Z,57.19
2022-09-14T22:09:24.613Z,56.86
2022-09-14T22:11:53.394Z,56.80
2022-09-14T22:14:22.893Z,56.85
2022-09-14T22:16:51.328Z,57.21
2022-09-14T22:19:21.365Z,56.92
2022-09-14T22:21:51.039Z,56.82
2022-09-14T22:24:21.902Z,57.15
2022-09-14T22:26:50.462Z,56.84
2022-09-14T22:29:19.846Z,57.20
2022-09-14T22:31:48.019Z,57.21
2022-09-14T22:34:16.758Z,57.25
2022-09-14T22:36:45.293Z,56.86
2022-09-14T22:39:13.820Z,56.86
2022-09-14T22:41:43.564Z,56.74
2022-09-14T22:44:13.089Z,56.98
2022-09-14T22:46:41.555Z,56.96
2022-09-14T22:49:09.755Z,57.13
2022-09-14T22:51:38.215Z,56.77
2022-09-14T22:54:07.169Z,57.12
2022-09-14T22:56:37.379Z,56.78
2022-09-14T22:59:08.518Z,57.09
2022-09-14T23:01:38.428Z,56.70
2022-09-14T23:04:08.637Z,57.15
2022-09-14T23:06:39.106Z,57.11
2022-09-14T23:09:08.311Z,56.89
2022-09-14T23:11:37.495Z,57.18
2022-09-14T23:14:07.047Z,57.09
2022-09-14T23:16:35.357Z,57.11
2022-09-14T23:19:06.761Z,56.71
2022-09-14T23:21:35.474Z,56.98
2022-09-14T23:24:06.272Z,56.74
2022-09-14T23:26:34.403Z,56.68
2022-09-14T23:29:04.949Z,56.87
2022-09-14T23:31:34.680Z,56.76
2022-09-14T23:34:04.489Z,56.67
2022-09-14T23:36:33.368Z,56.93
2022-09-14T23:39:01.628Z,56.76
2022-09-14T23:41:30.076Z,57.12
2022-09-14T23:43:58.315Z,57.17
2022-09-14T23:46:26.776Z,57.04
2022-09-14T23:48:56.401Z,57.02
2022-09-14T23:51:24.948Z,56.78
2022-09-14T23:53:53.048Z,57.10
2022-09-14T23:56:21.283Z,56.76
2022-09-14T23:58:49.447Z,56.74
